sensor_id;sensor_type;location;lat;lon;timestamp;temperature;humidity
26541;DHT22;14206;50.202;10.948;2023-03-31T00:00:13;10.60;96.60
26541;DHT22;14206;50.202;10.948;2023-03-31T00:02:40;10.60;96.60
26541;DHT22;14206;50.202;10.948;2023-03-31T00:05:08;10.60;96.60
26541;DHT22;14206;50.202;10.948;2023-03-31T00:07:35;10.60;96.60
26541;DHT22;14206;50.202;10.948;2023-03-31T00:10:06;10.60;96.60
26541;DHT22;14206;50.202;10.948;2023-03-31T00:12:44;10.60;96.60
26541;DHT22;14206;50.202;10.948;2023-03-31T00:15:11;10.60;96.60
26541;DHT22;14206;50.202;10.948;2023-03-31T00:17:38;10.60;96.60
26541;DHT22;14206;50.202;10.948;2023-03-31T00:20:06;10.60;96.60
26541;DHT22;14206;50.202;10.948;2023-03-31T00:22:38;10.60;96.60
26541;DHT22;14206;50.202;10.948;2023-03-31T00:25:08;10.60;96.60
26541;DHT22;14206;50.202;10.948;2023-03-31T00:27:36;10.60;96.60
26541;DHT22;14206;50.202;10.948;2023-03-31T00:30:04;10.50;96.60
26541;DHT22;14206;50.202;10.948;2023-03-31T00:32:31;10.50;96.60
26541;DHT22;14206;50.202;10.948;2023-03-31T00:34:59;10.40;96.60
26541;DHT22;14206;50.202;10.948;2023-03-31T00:37:28;10.40;96.60
26541;DHT22;14206;50.202;10.948;2023-03-31T00:39:55;10.40;96.60
26541;DHT22;14206;50.202;10.948;2023-03-31T00:42:22;10.40;96.60
26541;DHT22;14206;50.202;10.948;2023-03-31T00:47:47;10.50;96.60
26541;DHT22;14206;50.202;10.948;2023-03-31T00:50:27;10.50;96.60
26541;DHT22;14206;50.202;10.948;2023-03-31T00:53:01;10.50;96.60
26541;DHT22;14206;50.202;10.948;2023-03-31T00:55:37;10.50;96.60
26541;DHT22;14206;50.202;10.948;2023-03-31T00:58:06;10.60;96.60
26541;DHT22;14206;50.202;10.948;2023-03-31T01:00:34;10.60;96.60
26541;DHT22;14206;50.202;10.948;2023-03-31T01:03:05;10.60;96.60
26541;DHT22;14206;50.202;10.948;2023-03-31T01:05:43;10.60;96.60
26541;DHT22;14206;50.202;10.948;2023-03-31T01:08:12;10.60;96.60
26541;DHT22;14206;50.202;10.948;2023-03-31T01:10:44;10.60;96.60
26541;DHT22;14206;50.202;10.948;2023-03-31T01:13:13;10.70;96.60
26541;DHT22;14206;50.202;10.948;2023-03-31T01:15:41;10.60;96.60
26541;DHT22;14206;50.202;10.948;2023-03-31T01:18:08;10.60;96.60
26541;DHT22;14206;50.202;10.948;2023-03-31T01:48:25;10.20;96.60
26541;DHT22;14206;50.202;10.948;2023-03-31T01:51:17;10.30;96.60
26541;DHT22;14206;50.202;10.948;2023-03-31T01:53:53;10.30;96.60
26541;DHT22;14206;50.202;10.948;2023-03-31T01:56:37;10.30;96.60
26541;DHT22;14206;50.202;10.948;2023-03-31T01:59:18;10.30;96.60
26541;DHT22;14206;50.202;10.948;2023-03-31T02:02:20;10.20;96.60
26541;DHT22;14206;50.202;10.948;2023-03-31T02:05:00;10.20;96.60
26541;DHT22;14206;50.202;10.948;2023-03-31T02:07:38;10.20;96.60
26541;DHT22;14206;50.202;10.948;2023-03-31T02:10:08;10.10;96.60
26541;DHT22;14206;50.202;10.948;2023-03-31T02:12:39;10.10;96.60
26541;DHT22;14206;50.202;10.948;2023-03-31T02:15:13;10.10;96.60
26541;DHT22;14206;50.202;10.948;2023-03-31T02:17:42;10.10;96.60
26541;DHT22;14206;50.202;10.948;2023-03-31T02:20:14;10.00;96.60
26541;DHT22;14206;50.202;10.948;2023-03-31T02:22:44;10.10;96.60
26541;DHT22;14206;50.202;10.948;2023-03-31T02:25:15;10.10;96.60
26541;DHT22;14206;50.202;10.948;2023-03-31T02:27:46;10.10;96.60
26541;DHT22;14206;50.202;10.948;2023-03-31T02:30:15;10.20;96.60
26541;DHT22;14206;50.202;10.948;2023-03-31T02:32:43;10.20;96.60
26541;DHT22;14206;50.202;10.948;2023-03-31T02:35:18;10.30;96.60
26541;DHT22;14206;50.202;10.948;2023-03-31T02:37:47;10.30;96.60
26541;DHT22;14206;50.202;10.948;2023-03-31T02:40:20;10.20;96.60
26541;DHT22;14206;50.202;10.948;2023-03-31T02:42:48;10.20;96.60
26541;DHT22;14206;50.202;10.948;2023-03-31T02:48:28;10.20;96.60
26541;DHT22;14206;50.202;10.948;2023-03-31T03:14:39;10.20;96.60
26541;DHT22;14206;50.202;10.948;2023-03-31T03:17:16;10.20;96.60
26541;DHT22;14206;50.202;10.948;2023-03-31T03:19:53;10.20;96.60
26541;DHT22;14206;50.202;10.948;2023-03-31T03:22:21;10.10;96.60
26541;DHT22;14206;50.202;10.948;2023-03-31T03:24:48;10.10;96.60
26541;DHT22;14206;50.202;10.948;2023-03-31T03:27:15;10.00;96.60
26541;DHT22;14206;50.202;10.948;2023-03-31T03:29:42;10.00;96.60
26541;DHT22;14206;50.202;10.948;2023-03-31T03:32:09;10.00;96.60
26541;DHT22;14206;50.202;10.948;2023-03-31T03:34:36;10.00;96.60
26541;DHT22;14206;50.202;10.948;2023-03-31T03:37:03;10.00;96.60
26541;DHT22;14206;50.202;10.948;2023-03-31T03:39:30;9.90;96.60
26541;DHT22;14206;50.202;10.948;2023-03-31T03:41:57;9.90;96.60
26541;DHT22;14206;50.202;10.948;2023-03-31T03:44:24;9.90;96.60
26541;DHT22;14206;50.202;10.948;2023-03-31T03:46:51;9.90;96.60
26541;DHT22;14206;50.202;10.948;2023-03-31T03:49:18;9.80;96.60
26541;DHT22;14206;50.202;10.948;2023-03-31T03:51:45;9.80;96.60
26541;DHT22;14206;50.202;10.948;2023-03-31T03:54:13;9.80;96.60
26541;DHT22;14206;50.202;10.948;2023-03-31T03:56:39;9.80;96.60
26541;DHT22;14206;50.202;10.948;2023-03-31T03:59:06;9.80;96.60
26541;DHT22;14206;50.202;10.948;2023-03-31T04:01:33;9.80;96.60
26541;DHT22;14206;50.202;10.948;2023-03-31T04:04:00;9.80;96.60
26541;DHT22;14206;50.202;10.948;2023-03-31T04:06:27;9.80;96.60
26541;DHT22;14206;50.202;10.948;2023-03-31T04:08:54;9.80;96.60
26541;DHT22;14206;50.202;10.948;2023-03-31T04:11:21;9.70;96.60
26541;DHT22;14206;50.202;10.948;2023-03-31T04:13:48;9.70;96.60
26541;DHT22;14206;50.202;10.948;2023-03-31T04:16:15;9.70;96.60
26541;DHT22;14206;50.202;10.948;2023-03-31T04:18:42;9.60;96.60
26541;DHT22;14206;50.202;10.948;2023-03-31T04:21:11;9.60;96.60
26541;DHT22;14206;50.202;10.948;2023-03-31T04:23:41;9.60;96.60
26541;DHT22;14206;50.202;10.948;2023-03-31T04:26:13;9.60;96.60
26541;DHT22;14206;50.202;10.948;2023-03-31T04:28:40;9.60;96.60
26541;DHT22;14206;50.202;10.948;2023-03-31T04:31:09;9.60;96.60
26541;DHT22;14206;50.202;10.948;2023-03-31T04:33:36;9.60;96.60
26541;DHT22;14206;50.202;10.948;2023-03-31T04:36:06;9.60;96.60
26541;DHT22;14206;50.202;10.948;2023-03-31T04:38:49;9.50;96.60
26541;DHT22;14206;50.202;10.948;2023-03-31T04:41:21;9.50;96.60
26541;DHT22;14206;50.202;10.948;2023-03-31T04:43:48;9.40;96.60
26541;DHT22;14206;50.202;10.948;2023-03-31T04:46:15;9.40;96.60
26541;DHT22;14206;50.202;10.948;2023-03-31T04:48:41;9.40;96.60
26541;DHT22;14206;50.202;10.948;2023-03-31T04:51:08;9.40;96.60
26541;DHT22;14206;50.202;10.948;2023-03-31T04:53:36;9.40;96.60
26541;DHT22;14206;50.202;10.948;2023-03-31T04:56:03;9.50;96.60
26541;DHT22;14206;50.202;10.948;2023-03-31T04:58:30;9.50;96.60
26541;DHT22;14206;50.202;10.948;2023-03-31T05:00:57;9.50;96.60
26541;DHT22;14206;50.202;10.948;2023-03-31T05:03:24;9.60;96.60
26541;DHT22;14206;50.202;10.948;2023-03-31T05:05:52;9.60;96.60
26541;DHT22;14206;50.202;10.948;2023-03-31T05:08:18;9.60;96.60
26541;DHT22;14206;50.202;10.948;2023-03-31T05:10:46;9.70;96.60
26541;DHT22;14206;50.202;10.948;2023-03-31T05:13:13;9.70;96.60
26541;DHT22;14206;50.202;10.948;2023-03-31T05:15:40;9.70;96.60
26541;DHT22;14206;50.202;10.948;2023-03-31T05:18:07;9.70;96.60
26541;DHT22;14206;50.202;10.948;2023-03-31T05:20:34;9.70;96.60
26541;DHT22;14206;50.202;10.948;2023-03-31T05:23:01;9.70;96.60
26541;DHT22;14206;50.202;10.948;2023-03-31T05:25:28;9.70;96.60
26541;DHT22;14206;50.202;10.948;2023-03-31T05:27:59;9.70;96.60
26541;DHT22;14206;50.202;10.948;2023-03-31T05:30:27;9.70;96.60
26541;DHT22;14206;50.202;10.948;2023-03-31T05:32:54;9.70;96.60
26541;DHT22;14206;50.202;10.948;2023-03-31T05:35:22;9.70;96.60
26541;DHT22;14206;50.202;10.948;2023-03-31T05:37:49;9.70;96.60
26541;DHT22;14206;50.202;10.948;2023-03-31T05:40:16;9.70;96.60
26541;DHT22;14206;50.202;10.948;2023-03-31T05:42:43;9.70;96.60
26541;DHT22;14206;50.202;10.948;2023-03-31T05:45:10;9.80;96.60
26541;DHT22;14206;50.202;10.948;2023-03-31T05:47:38;9.80;96.60
26541;DHT22;14206;50.202;10.948;2023-03-31T05:50:05;9.80;96.60
26541;DHT22;14206;50.202;10.948;2023-03-31T05:52:34;9.80;96.60
26541;DHT22;14206;50.202;10.948;2023-03-31T05:55:02;9.90;96.60
26541;DHT22;14206;50.202;10.948;2023-03-31T05:57:30;9.90;96.60
26541;DHT22;14206;50.202;10.948;2023-03-31T05:59:57;10.00;96.60
26541;DHT22;14206;50.202;10.948;2023-03-31T06:02:24;10.00;96.60
26541;DHT22;14206;50.202;10.948;2023-03-31T06:04:51;10.10;96.60
26541;DHT22;14206;50.202;10.948;2023-03-31T06:07:18;10.20;96.60
26541;DHT22;14206;50.202;10.948;2023-03-31T06:09:45;10.20;96.60
26541;DHT22;14206;50.202;10.948;2023-03-31T06:12:12;10.30;96.60
26541;DHT22;14206;50.202;10.948;2023-03-31T06:14:39;10.40;96.60
26541;DHT22;14206;50.202;10.948;2023-03-31T06:17:06;10.40;96.60
26541;DHT22;14206;50.202;10.948;2023-03-31T06:19:33;10.40;96.60
26541;DHT22;14206;50.202;10.948;2023-03-31T06:22:00;10.40;96.60
26541;DHT22;14206;50.202;10.948;2023-03-31T06:24:27;10.40;96.60
26541;DHT22;14206;50.202;10.948;2023-03-31T06:26:54;10.40;96.60
26541;DHT22;14206;50.202;10.948;2023-03-31T06:29:21;10.40;96.60
26541;DHT22;14206;50.202;10.948;2023-03-31T06:31:47;10.40;96.60
26541;DHT22;14206;50.202;10.948;2023-03-31T06:34:14;10.40;96.60
26541;DHT22;14206;50.202;10.948;2023-03-31T06:36:45;10.40;96.60
26541;DHT22;14206;50.202;10.948;2023-03-31T06:39:11;10.50;96.60
26541;DHT22;14206;50.202;10.948;2023-03-31T06:41:38;10.50;96.60
26541;DHT22;14206;50.202;10.948;2023-03-31T06:44:05;10.50;96.60
26541;DHT22;14206;50.202;10.948;2023-03-31T06:46:32;10.60;96.60
26541;DHT22;14206;50.202;10.948;2023-03-31T06:48:59;10.50;96.60
26541;DHT22;14206;50.202;10.948;2023-03-31T06:51:26;10.50;96.60
26541;DHT22;14206;50.202;10.948;2023-03-31T06:53:52;10.50;96.60
26541;DHT22;14206;50.202;10.948;2023-03-31T06:56:19;10.40;96.60
26541;DHT22;14206;50.202;10.948;2023-03-31T06:58:46;10.40;96.60
26541;DHT22;14206;50.202;10.948;2023-03-31T07:01:13;10.30;96.60
26541;DHT22;14206;50.202;10.948;2023-03-31T07:03:40;10.30;96.60
26541;DHT22;14206;50.202;10.948;2023-03-31T07:06:07;10.20;96.60
26541;DHT22;14206;50.202;10.948;2023-03-31T07:08:33;10.20;96.60
26541;DHT22;14206;50.202;10.948;2023-03-31T07:11:01;10.20;96.60
26541;DHT22;14206;50.202;10.948;2023-03-31T07:13:28;10.20;96.60
26541;DHT22;14206;50.202;10.948;2023-03-31T07:15:55;10.20;96.60
26541;DHT22;14206;50.202;10.948;2023-03-31T07:18:22;10.10;96.60
26541;DHT22;14206;50.202;10.948;2023-03-31T07:20:52;10.10;96.60
26541;DHT22;14206;50.202;10.948;2023-03-31T07:23:19;10.10;96.60
26541;DHT22;14206;50.202;10.948;2023-03-31T07:25:47;10.10;96.60
26541;DHT22;14206;50.202;10.948;2023-03-31T07:28:14;10.20;96.60
26541;DHT22;14206;50.202;10.948;2023-03-31T07:30:41;10.20;96.60
26541;DHT22;14206;50.202;10.948;2023-03-31T07:33:08;10.20;96.60
26541;DHT22;14206;50.202;10.948;2023-03-31T07:35:39;10.30;96.60
26541;DHT22;14206;50.202;10.948;2023-03-31T07:38:11;10.30;96.60
26541;DHT22;14206;50.202;10.948;2023-03-31T07:40:39;10.30;96.60
26541;DHT22;14206;50.202;10.948;2023-03-31T07:43:06;10.30;96.60
26541;DHT22;14206;50.202;10.948;2023-03-31T07:45:34;10.30;96.60
26541;DHT22;14206;50.202;10.948;2023-03-31T07:48:01;10.30;96.60
26541;DHT22;14206;50.202;10.948;2023-03-31T07:50:28;10.40;96.60
26541;DHT22;14206;50.202;10.948;2023-03-31T07:52:57;10.40;96.60
26541;DHT22;14206;50.202;10.948;2023-03-31T07:55:24;10.30;96.60
26541;DHT22;14206;50.202;10.948;2023-03-31T07:57:52;10.30;96.60
26541;DHT22;14206;50.202;10.948;2023-03-31T08:00:19;10.20;96.60
26541;DHT22;14206;50.202;10.948;2023-03-31T08:02:46;10.10;96.60
26541;DHT22;14206;50.202;10.948;2023-03-31T08:05:15;10.10;96.60
26541;DHT22;14206;50.202;10.948;2023-03-31T08:07:44;10.10;96.60
26541;DHT22;14206;50.202;10.948;2023-03-31T08:10:16;10.00;96.60
26541;DHT22;14206;50.202;10.948;2023-03-31T08:12:43;10.00;96.60
26541;DHT22;14206;50.202;10.948;2023-03-31T08:15:10;9.90;96.60
26541;DHT22;14206;50.202;10.948;2023-03-31T08:17:38;9.90;96.60
26541;DHT22;14206;50.202;10.948;2023-03-31T08:20:05;9.90;96.60
26541;DHT22;14206;50.202;10.948;2023-03-31T08:22:34;9.90;96.60
26541;DHT22;14206;50.202;10.948;2023-03-31T08:25:01;9.90;96.60
26541;DHT22;14206;50.202;10.948;2023-03-31T08:27:32;9.90;96.60
26541;DHT22;14206;50.202;10.948;2023-03-31T08:29:59;9.90;96.60
26541;DHT22;14206;50.202;10.948;2023-03-31T08:32:30;9.90;96.60
26541;DHT22;14206;50.202;10.948;2023-03-31T08:34:57;9.90;96.60
26541;DHT22;14206;50.202;10.948;2023-03-31T08:37:24;9.80;96.60
26541;DHT22;14206;50.202;10.948;2023-03-31T08:39:54;9.80;96.60
26541;DHT22;14206;50.202;10.948;2023-03-31T08:42:38;9.70;96.60
26541;DHT22;14206;50.202;10.948;2023-03-31T08:45:20;9.70;96.60
26541;DHT22;14206;50.202;10.948;2023-03-31T08:47:52;9.70;96.60
26541;DHT22;14206;50.202;10.948;2023-03-31T08:50:24;9.70;96.60
26541;DHT22;14206;50.202;10.948;2023-03-31T08:53:49;9.70;96.60
26541;DHT22;14206;50.202;10.948;2023-03-31T08:55:52;9.70;96.60
26541;DHT22;14206;50.202;10.948;2023-03-31T09:01:26;9.70;96.60
26541;DHT22;14206;50.202;10.948;2023-03-31T09:05:08;9.70;96.60
26541;DHT22;14206;50.202;10.948;2023-03-31T09:11:27;9.70;96.60
26541;DHT22;14206;50.202;10.948;2023-03-31T09:16:14;9.60;96.60
26541;DHT22;14206;50.202;10.948;2023-03-31T09:18:42;9.60;96.60
26541;DHT22;14206;50.202;10.948;2023-03-31T09:21:25;9.60;96.60
26541;DHT22;14206;50.202;10.948;2023-03-31T09:24:23;9.60;96.60
26541;DHT22;14206;50.202;10.948;2023-03-31T09:27:04;9.60;96.60
26541;DHT22;14206;50.202;10.948;2023-03-31T09:29:51;9.60;96.60
26541;DHT22;14206;50.202;10.948;2023-03-31T09:32:21;9.60;96.60
26541;DHT22;14206;50.202;10.948;2023-03-31T09:34:54;9.60;96.60
26541;DHT22;14206;50.202;10.948;2023-03-31T09:37:26;9.60;96.60
26541;DHT22;14206;50.202;10.948;2023-03-31T09:39:53;9.70;96.60
26541;DHT22;14206;50.202;10.948;2023-03-31T09:42:20;9.70;96.60
26541;DHT22;14206;50.202;10.948;2023-03-31T09:44:48;9.70;96.60
26541;DHT22;14206;50.202;10.948;2023-03-31T09:47:31;9.80;96.60
26541;DHT22;14206;50.202;10.948;2023-03-31T09:49:59;10.00;96.60
26541;DHT22;14206;50.202;10.948;2023-03-31T09:52:42;10.20;96.60
26541;DHT22;14206;50.202;10.948;2023-03-31T09:55:39;10.40;96.60
26541;DHT22;14206;50.202;10.948;2023-03-31T09:58:16;10.40;96.60
26541;DHT22;14206;50.202;10.948;2023-03-31T10:00:59;10.40;96.60
26541;DHT22;14206;50.202;10.948;2023-03-31T10:03:28;10.40;96.60
26541;DHT22;14206;50.202;10.948;2023-03-31T10:05:56;10.40;96.60
26541;DHT22;14206;50.202;10.948;2023-03-31T10:08:41;10.40;96.60
26541;DHT22;14206;50.202;10.948;2023-03-31T10:11:09;10.50;96.60
26541;DHT22;14206;50.202;10.948;2023-03-31T10:16:12;10.70;96.60
26541;DHT22;14206;50.202;10.948;2023-03-31T10:18:41;10.80;96.60
26541;DHT22;14206;50.202;10.948;2023-03-31T10:21:25;11.00;96.60
26541;DHT22;14206;50.202;10.948;2023-03-31T10:23:53;11.00;96.60
26541;DHT22;14206;50.202;10.948;2023-03-31T10:26:24;11.10;96.60
26541;DHT22;14206;50.202;10.948;2023-03-31T10:28:52;11.20;96.60
26541;DHT22;14206;50.202;10.948;2023-03-31T10:31:25;11.20;96.60
26541;DHT22;14206;50.202;10.948;2023-03-31T10:33:54;11.40;96.60
26541;DHT22;14206;50.202;10.948;2023-03-31T10:36:25;11.40;96.60
26541;DHT22;14206;50.202;10.948;2023-03-31T10:38:53;11.40;96.60
26541;DHT22;14206;50.202;10.948;2023-03-31T10:41:23;11.40;96.60
26541;DHT22;14206;50.202;10.948;2023-03-31T10:43:53;11.30;96.60
26541;DHT22;14206;50.202;10.948;2023-03-31T10:46:24;11.00;96.60
26541;DHT22;14206;50.202;10.948;2023-03-31T10:51:57;10.60;96.60
26541;DHT22;14206;50.202;10.948;2023-03-31T10:54:25;10.60;96.60
26541;DHT22;14206;50.202;10.948;2023-03-31T10:57:00;10.70;96.60
26541;DHT22;14206;50.202;10.948;2023-03-31T11:16:38;18.50;79.70
26541;DHT22;14206;50.202;10.948;2023-03-31T11:21:55;19.40;77.80
26541;DHT22;14206;50.202;10.948;2023-03-31T11:29:50;19.40;73.10
26541;DHT22;14206;50.202;10.948;2023-03-31T11:35:17;17.40;77.20
26541;DHT22;14206;50.202;10.948;2023-03-31T11:38:12;16.70;77.40
26541;DHT22;14206;50.202;10.948;2023-03-31T11:46:11;14.20;84.70
26541;DHT22;14206;50.202;10.948;2023-03-31T11:51:57;14.80;83.60
26541;DHT22;14206;50.202;10.948;2023-03-31T11:54:36;16.30;79.50
26541;DHT22;14206;50.202;10.948;2023-03-31T12:00:21;17.90;73.90
26541;DHT22;14206;50.202;10.948;2023-03-31T12:06:11;18.90;71.80
26541;DHT22;14206;50.202;10.948;2023-03-31T12:12:05;20.10;70.80
26541;DHT22;14206;50.202;10.948;2023-03-31T12:14:45;20.90;68.80
26541;DHT22;14206;50.202;10.948;2023-03-31T12:17:20;20.70;66.10
26541;DHT22;14206;50.202;10.948;2023-03-31T12:19:51;19.80;67.80
26541;DHT22;14206;50.202;10.948;2023-03-31T12:22:26;19.00;69.10
26541;DHT22;14206;50.202;10.948;2023-03-31T12:24:54;18.30;68.80
26541;DHT22;14206;50.202;10.948;2023-03-31T12:27:25;17.70;69.30
26541;DHT22;14206;50.202;10.948;2023-03-31T12:29:57;17.30;71.20
26541;DHT22;14206;50.202;10.948;2023-03-31T12:32:29;17.20;70.40
26541;DHT22;14206;50.202;10.948;2023-03-31T12:49:06;17.10;71.20
26541;DHT22;14206;50.202;10.948;2023-03-31T12:52:07;17.20;70.30
26541;DHT22;14206;50.202;10.948;2023-03-31T12:55:15;16.80;70.40
26541;DHT22;14206;50.202;10.948;2023-03-31T12:57:47;16.10;72.50
26541;DHT22;14206;50.202;10.948;2023-03-31T13:00:22;15.60;74.20
26541;DHT22;14206;50.202;10.948;2023-03-31T13:03:31;15.20;75.80
26541;DHT22;14206;50.202;10.948;2023-03-31T13:05:43;14.90;76.40
26541;DHT22;14206;50.202;10.948;2023-03-31T13:11:16;14.30;79.40
26541;DHT22;14206;50.202;10.948;2023-03-31T13:13:57;13.80;83.00
26541;DHT22;14206;50.202;10.948;2023-03-31T13:16:27;13.30;84.50
26541;DHT22;14206;50.202;10.948;2023-03-31T13:18:55;13.10;87.30
26541;DHT22;14206;50.202;10.948;2023-03-31T13:21:23;12.90;86.90
26541;DHT22;14206;50.202;10.948;2023-03-31T13:23:50;12.80;87.30
26541;DHT22;14206;50.202;10.948;2023-03-31T13:26:38;12.80;87.60
26541;DHT22;14206;50.202;10.948;2023-03-31T13:42:37;13.60;87.30
26541;DHT22;14206;50.202;10.948;2023-03-31T13:48:17;13.80;86.80
26541;DHT22;14206;50.202;10.948;2023-03-31T13:51:02;13.80;86.90
26541;DHT22;14206;50.202;10.948;2023-03-31T13:59:17;13.70;86.10
26541;DHT22;14206;50.202;10.948;2023-03-31T14:07:21;13.70;85.70
26541;DHT22;14206;50.202;10.948;2023-03-31T14:09:52;13.80;84.60
26541;DHT22;14206;50.202;10.948;2023-03-31T14:14:51;13.80;83.60
26541;DHT22;14206;50.202;10.948;2023-03-31T14:17:28;13.80;83.10
26541;DHT22;14206;50.202;10.948;2023-03-31T14:23:01;13.70;83.60
26541;DHT22;14206;50.202;10.948;2023-03-31T14:28:47;13.80;84.40
26541;DHT22;14206;50.202;10.948;2023-03-31T14:31:32;13.90;83.70
26541;DHT22;14206;50.202;10.948;2023-03-31T14:34:17;14.00;82.70
26541;DHT22;14206;50.202;10.948;2023-03-31T14:36:52;14.10;84.10
26541;DHT22;14206;50.202;10.948;2023-03-31T14:39:26;14.20;83.80
26541;DHT22;14206;50.202;10.948;2023-03-31T14:41:58;14.20;83.20
26541;DHT22;14206;50.202;10.948;2023-03-31T14:44:25;14.20;82.80
26541;DHT22;14206;50.202;10.948;2023-03-31T14:46:56;14.10;83.00
26541;DHT22;14206;50.202;10.948;2023-03-31T14:49:29;13.90;83.30
26541;DHT22;14206;50.202;10.948;2023-03-31T14:52:01;13.80;84.10
26541;DHT22;14206;50.202;10.948;2023-03-31T14:54:35;13.60;84.50
26541;DHT22;14206;50.202;10.948;2023-03-31T14:57:06;13.50;86.20
26541;DHT22;14206;50.202;10.948;2023-03-31T14:59:34;13.40;87.80
26541;DHT22;14206;50.202;10.948;2023-03-31T15:02:03;13.50;86.60
26541;DHT22;14206;50.202;10.948;2023-03-31T15:04:37;13.50;88.10
26541;DHT22;14206;50.202;10.948;2023-03-31T15:07:11;13.50;87.00
26541;DHT22;14206;50.202;10.948;2023-03-31T15:09:39;13.50;85.70
26541;DHT22;14206;50.202;10.948;2023-03-31T15:12:11;13.50;86.50
26541;DHT22;14206;50.202;10.948;2023-03-31T15:14:51;13.40;86.90
26541;DHT22;14206;50.202;10.948;2023-03-31T15:17:34;13.40;86.10
26541;DHT22;14206;50.202;10.948;2023-03-31T15:22:49;13.00;87.80
26541;DHT22;14206;50.202;10.948;2023-03-31T15:25:16;12.80;88.00
26541;DHT22;14206;50.202;10.948;2023-03-31T15:27:53;12.90;88.70
26541;DHT22;14206;50.202;10.948;2023-03-31T15:30:23;13.10;88.80
26541;DHT22;14206;50.202;10.948;2023-03-31T15:32:51;13.20;88.20
26541;DHT22;14206;50.202;10.948;2023-03-31T15:35:31;13.30;88.20
26541;DHT22;14206;50.202;10.948;2023-03-31T15:38:02;13.20;87.80
26541;DHT22;14206;50.202;10.948;2023-03-31T15:40:34;13.20;88.20
26541;DHT22;14206;50.202;10.948;2023-03-31T15:45:58;13.40;87.70
26541;DHT22;14206;50.202;10.948;2023-03-31T15:48:34;13.40;87.70
26541;DHT22;14206;50.202;10.948;2023-03-31T15:51:13;13.40;86.30
26541;DHT22;14206;50.202;10.948;2023-03-31T15:53:47;13.30;87.20
26541;DHT22;14206;50.202;10.948;2023-03-31T16:01:23;13.10;87.30
26541;DHT22;14206;50.202;10.948;2023-03-31T16:03:53;13.00;87.90
26541;DHT22;14206;50.202;10.948;2023-03-31T16:09:07;12.60;91.50
26541;DHT22;14206;50.202;10.948;2023-03-31T16:14:24;11.80;94.20
26541;DHT22;14206;50.202;10.948;2023-03-31T16:16:59;11.50;95.40
26541;DHT22;14206;50.202;10.948;2023-03-31T16:19:30;11.20;96.20
26541;DHT22;14206;50.202;10.948;2023-03-31T16:22:04;11.20;96.60
26541;DHT22;14206;50.202;10.948;2023-03-31T16:24:33;11.30;96.60
26541;DHT22;14206;50.202;10.948;2023-03-31T16:27:05;11.40;96.50
26541;DHT22;14206;50.202;10.948;2023-03-31T16:29:34;11.60;96.00
26541;DHT22;14206;50.202;10.948;2023-03-31T16:32:11;11.60;95.60
26541;DHT22;14206;50.202;10.948;2023-03-31T16:34:55;11.70;96.10
26541;DHT22;14206;50.202;10.948;2023-03-31T16:37:23;11.70;96.60
26541;DHT22;14206;50.202;10.948;2023-03-31T16:39:50;11.80;96.20
26541;DHT22;14206;50.202;10.948;2023-03-31T16:42:18;11.80;95.50
26541;DHT22;14206;50.202;10.948;2023-03-31T16:44:45;11.70;94.30
26541;DHT22;14206;50.202;10.948;2023-03-31T16:47:26;11.70;95.40
26541;DHT22;14206;50.202;10.948;2023-03-31T16:50:02;11.60;95.70
26541;DHT22;14206;50.202;10.948;2023-03-31T16:52:33;11.60;96.50
26541;DHT22;14206;50.202;10.948;2023-03-31T16:55:00;11.50;96.10
26541;DHT22;14206;50.202;10.948;2023-03-31T16:57:27;11.40;96.30
26541;DHT22;14206;50.202;10.948;2023-03-31T16:59:54;11.30;96.60
26541;DHT22;14206;50.202;10.948;2023-03-31T17:02:24;11.20;96.60
26541;DHT22;14206;50.202;10.948;2023-03-31T17:04:51;11.00;96.60
26541;DHT22;14206;50.202;10.948;2023-03-31T17:07:22;10.90;96.60
26541;DHT22;14206;50.202;10.948;2023-03-31T17:09:49;10.70;96.60
26541;DHT22;14206;50.202;10.948;2023-03-31T17:12:15;10.60;96.60
26541;DHT22;14206;50.202;10.948;2023-03-31T17:14:44;10.50;96.60
26541;DHT22;14206;50.202;10.948;2023-03-31T17:17:11;10.30;96.60
26541;DHT22;14206;50.202;10.948;2023-03-31T17:19:40;10.20;96.60
26541;DHT22;14206;50.202;10.948;2023-03-31T17:22:07;10.10;96.60
26541;DHT22;14206;50.202;10.948;2023-03-31T17:24:34;10.10;96.60
26541;DHT22;14206;50.202;10.948;2023-03-31T17:27:01;10.20;96.60
26541;DHT22;14206;50.202;10.948;2023-03-31T17:29:28;10.20;96.60
26541;DHT22;14206;50.202;10.948;2023-03-31T17:31:54;10.20;96.60
26541;DHT22;14206;50.202;10.948;2023-03-31T17:34:21;10.20;96.60
26541;DHT22;14206;50.202;10.948;2023-03-31T17:36:48;10.20;96.60
26541;DHT22;14206;50.202;10.948;2023-03-31T17:39:17;10.20;96.60
26541;DHT22;14206;50.202;10.948;2023-03-31T17:41:44;10.20;96.60
26541;DHT22;14206;50.202;10.948;2023-03-31T17:44:11;10.20;96.60
26541;DHT22;14206;50.202;10.948;2023-03-31T17:46:38;10.20;96.60
26541;DHT22;14206;50.202;10.948;2023-03-31T17:49:04;10.10;96.60
26541;DHT22;14206;50.202;10.948;2023-03-31T17:51:31;10.10;96.60
26541;DHT22;14206;50.202;10.948;2023-03-31T17:54:00;10.00;96.60
26541;DHT22;14206;50.202;10.948;2023-03-31T17:56:28;10.00;96.60
26541;DHT22;14206;50.202;10.948;2023-03-31T17:58:55;10.00;96.60
26541;DHT22;14206;50.202;10.948;2023-03-31T18:01:22;10.00;96.60
26541;DHT22;14206;50.202;10.948;2023-03-31T18:03:49;10.00;96.60
26541;DHT22;14206;50.202;10.948;2023-03-31T18:06:16;10.00;96.60
26541;DHT22;14206;50.202;10.948;2023-03-31T18:08:43;10.00;96.60
26541;DHT22;14206;50.202;10.948;2023-03-31T18:11:10;10.00;96.60
26541;DHT22;14206;50.202;10.948;2023-03-31T18:13:39;9.90;96.60
26541;DHT22;14206;50.202;10.948;2023-03-31T18:16:06;9.90;96.60
26541;DHT22;14206;50.202;10.948;2023-03-31T18:18:36;9.80;96.60
26541;DHT22;14206;50.202;10.948;2023-03-31T18:21:05;9.80;96.60
26541;DHT22;14206;50.202;10.948;2023-03-31T18:23:32;9.80;96.60
26541;DHT22;14206;50.202;10.948;2023-03-31T18:26:00;9.80;96.60
26541;DHT22;14206;50.202;10.948;2023-03-31T18:28:27;9.70;96.60
26541;DHT22;14206;50.202;10.948;2023-03-31T18:30:54;9.70;96.60
26541;DHT22;14206;50.202;10.948;2023-03-31T18:33:21;9.70;96.60
26541;DHT22;14206;50.202;10.948;2023-03-31T18:35:48;9.70;96.60
26541;DHT22;14206;50.202;10.948;2023-03-31T18:38:16;9.70;96.60
26541;DHT22;14206;50.202;10.948;2023-03-31T18:40:48;9.70;96.60
26541;DHT22;14206;50.202;10.948;2023-03-31T18:43:16;9.70;96.60
26541;DHT22;14206;50.202;10.948;2023-03-31T18:45:48;9.70;96.60
26541;DHT22;14206;50.202;10.948;2023-03-31T18:48:17;9.70;96.60
26541;DHT22;14206;50.202;10.948;2023-03-31T18:50:44;9.70;96.60